Terminal Aerodrome Forecast
Issued by NWS Grand Forks, ND

Home | Current Version | Previous Version | Text Only | Print | Product List | Glossary Off
Versions: 1 2 3 4 5 6 7 8 9 10 11 12 13 14

792
FTUS43 KFGF 231356 AAA
TAFFAR
TAF AMD
KFAR 231356Z 2314/2412 30019G27KT P6SM FEW025 BKN030
     FM231700 31021G29KT P6SM BKN035
     FM232300 32017G25KT P6SM SCT100
     FM240600 31010KT P6SM FEW110
     FM240900 30010KT P6SM BKN090=

USA.gov is the U.S. government's official web portal to all federal, state and local government web resources and services.